Time;durP1;ratioP1;P1;durP2;ratioP2;P2;SDS_P1;SDS_P2;PMS_P1;PMS_P2;Temp;Humidity;BMP_temperature;BMP_pressure;BME280_temperature;BME280_humidity;BME280_pressure;Samples;Min_cycle;Max_cycle;Signal;HPM_P1;HPM_P2
2023/04/17 00:01:41;;;;;;;41.88;22.30;;;9.60;99.90;;;;;;5027331;28;20048;-86
2023/04/17 00:04:11;;;;;;;44.63;24.75;;;9.60;99.90;;;;;;5051207;28;20068;-86
2023/04/17 00:06:43;;;;;;;42.28;24.40;;;9.60;99.90;;;;;;5057924;28;20049;-87
2023/04/17 00:09:09;;;;;;;39.08;23.33;;;9.60;99.90;;;;;;5029532;28;20041;-86
2023/04/17 00:11:35;;;;;;;43.47;23.83;;;9.60;99.90;;;;;;5048512;28;20140;-86
2023/04/17 00:14:01;;;;;;;41.40;23.85;;;9.60;99.90;;;;;;5033063;28;20043;-86
2023/04/17 00:16:27;;;;;;;39.22;22.50;;;9.50;99.90;;;;;;5025167;28;21367;-86
2023/04/17 00:18:53;;;;;;;38.08;22.08;;;9.60;99.90;;;;;;5022803;28;20037;-86
2023/04/17 00:21:19;;;;;;;41.03;24.90;;;9.60;99.90;;;;;;4999754;28;20378;-85
2023/04/17 00:23:44;;;;;;;42.88;24.17;;;9.60;99.90;;;;;;5007756;28;20556;-86
2023/04/17 00:26:11;;;;;;;40.95;22.92;;;9.50;99.90;;;;;;5006750;28;20052;-86
2023/04/17 00:28:37;;;;;;;39.42;22.35;;;9.50;99.90;;;;;;5031923;28;20053;-86
2023/04/17 00:31:03;;;;;;;49.70;26.42;;;9.50;99.90;;;;;;5007821;28;20045;-86
2023/04/17 00:33:30;;;;;;;46.15;24.85;;;9.50;99.90;;;;;;5029043;28;20116;-86
2023/04/17 00:35:56;;;;;;;38.17;22.95;;;9.60;99.90;;;;;;5010797;28;20057;-86
2023/04/17 00:38:22;;;;;;;40.65;24.25;;;9.50;99.90;;;;;;5010890;28;20045;-86
2023/04/17 00:40:47;;;;;;;43.47;24.42;;;9.50;99.90;;;;;;5014728;28;20427;-86
2023/04/17 00:43:13;;;;;;;40.83;24.92;;;9.50;99.90;;;;;;5028571;28;20609;-86
2023/04/17 00:45:40;;;;;;;44.58;24.42;;;9.50;99.90;;;;;;5033892;28;20108;-87
2023/04/17 00:48:08;;;;;;;39.50;22.55;;;9.50;99.90;;;;;;5010337;28;20060;-86
2023/04/17 00:50:34;;;;;;;43.78;25.48;;;9.50;99.90;;;;;;5020608;28;20042;-86
2023/04/17 00:53:00;;;;;;;41.15;23.15;;;9.50;99.90;;;;;;5020447;28;20049;-85
2023/04/17 00:55:31;;;;;;;44.03;24.90;;;9.50;99.90;;;;;;5013520;28;20559;-86
2023/04/17 00:57:57;;;;;;;43.83;25.45;;;9.50;99.90;;;;;;4992249;28;20096;-86
2023/04/17 01:00:23;;;;;;;36.92;20.98;;;9.50;99.90;;;;;;5013718;28;20105;-86
2023/04/17 01:02:49;;;;;;;43.92;23.73;;;9.50;99.90;;;;;;5028328;28;20324;-85
2023/04/17 01:05:15;;;;;;;42.15;24.15;;;9.50;99.90;;;;;;5013663;28;20045;-86
2023/04/17 01:07:41;;;;;;;43.50;24.13;;;9.50;99.90;;;;;;5012135;28;20048;-86
2023/04/17 01:10:08;;;;;;;40.25;22.63;;;9.50;99.90;;;;;;5030480;28;20051;-86
2023/04/17 01:12:34;;;;;;;41.17;22.98;;;9.50;99.90;;;;;;5015814;28;20126;-86
2023/04/17 01:14:59;;;;;;;45.78;25.65;;;9.50;99.90;;;;;;5019129;28;20065;-86
2023/04/17 01:17:26;;;;;;;42.63;23.05;;;9.50;99.90;;;;;;5047018;28;20055;-86
2023/04/17 01:19:52;;;;;;;44.63;25.05;;;9.50;99.90;;;;;;5010867;28;20080;-86
2023/04/17 01:22:19;;;;;;;42.83;25.35;;;9.50;99.90;;;;;;5030933;28;20063;-86
2023/04/17 01:24:45;;;;;;;45.90;25.50;;;9.50;99.90;;;;;;5013722;28;20063;-85
2023/04/17 01:27:14;;;;;;;47.53;25.15;;;9.50;99.90;;;;;;5047092;28;20528;-86
2023/04/17 01:29:41;;;;;;;42.03;24.13;;;9.40;99.90;;;;;;5050924;28;20045;-86
2023/04/17 01:32:07;;;;;;;45.72;25.00;;;9.40;99.90;;;;;;5047422;28;20111;-86
2023/04/17 01:34:33;;;;;;;41.00;22.70;;;9.40;99.90;;;;;;5048806;28;20060;-86
2023/04/17 01:36:59;;;;;;;52.08;26.63;;;9.40;99.90;;;;;;5058041;28;20052;-86
2023/04/17 01:39:25;;;;;;;44.88;24.73;;;9.40;99.90;;;;;;5044694;28;20037;-86
2023/04/17 01:41:51;;;;;;;42.40;24.33;;;9.40;99.90;;;;;;5011119;28;20083;-86
2023/04/17 01:44:17;;;;;;;50.08;25.00;;;9.40;99.90;;;;;;5050565;28;20043;-86
2023/04/17 01:46:43;;;;;;;44.00;25.70;;;9.40;99.90;;;;;;5036260;28;20730;-86
2023/04/17 01:49:09;;;;;;;52.83;27.83;;;9.40;99.90;;;;;;5036340;28;20048;-86
2023/04/17 01:51:34;;;;;;;46.03;25.63;;;9.40;99.90;;;;;;5053503;28;20048;-86
2023/04/17 01:54:00;;;;;;;49.80;27.10;;;9.30;99.90;;;;;;5035335;28;20053;-86
2023/04/17 01:56:26;;;;;;;50.75;26.50;;;9.30;99.90;;;;;;5035797;28;20078;-87
2023/04/17 01:58:52;;;;;;;51.10;27.08;;;9.50;99.90;;;;;;5048059;28;20765;-86
2023/04/17 02:01:18;;;;;;;57.05;28.17;;;9.30;99.90;;;;;;5049393;28;20048;-86
2023/04/17 02:03:43;;;;;;;59.95;28.67;;;9.30;99.90;;;;;;5052439;28;20041;-86
2023/04/17 02:06:09;;;;;;;53.13;27.23;;;9.30;99.90;;;;;;5055594;28;20045;-86
2023/04/17 02:08:35;;;;;;;57.03;30.30;;;9.30;99.90;;;;;;5015235;28;20284;-86
2023/04/17 02:11:01;;;;;;;46.42;23.48;;;9.30;99.90;;;;;;5042603;28;20037;-86
2023/04/17 02:13:26;;;;;;;51.90;26.98;;;9.30;99.90;;;;;;5055179;28;20127;-86
2023/04/17 02:15:52;;;;;;;65.70;31.13;;;9.30;99.90;;;;;;5057737;28;20064;-87
2023/04/17 02:18:18;;;;;;;48.00;25.05;;;9.30;99.90;;;;;;5061130;28;20047;-86
2023/04/17 02:20:43;;;;;;;47.20;25.98;;;9.30;99.90;;;;;;5022217;28;20142;-86
2023/04/17 02:23:12;;;;;;;45.58;25.58;;;9.30;99.90;;;;;;5056902;28;20124;-86
2023/04/17 02:25:38;;;;;;;55.60;28.52;;;9.30;99.90;;;;;;5055452;28;20902;-86
2023/04/17 02:28:04;;;;;;;60.72;29.60;;;9.30;99.90;;;;;;5051049;28;20052;-86
2023/04/17 02:30:29;;;;;;;50.95;25.13;;;9.30;99.90;;;;;;5039348;28;20507;-86
2023/04/17 02:32:56;;;;;;;50.67;26.58;;;9.30;99.90;;;;;;5043214;28;20075;-86
2023/04/17 02:35:24;;;;;;;47.47;25.58;;;9.30;99.90;;;;;;5037646;28;20041;-87
2023/04/17 02:37:50;;;;;;;53.25;26.52;;;9.30;99.90;;;;;;5031803;28;20496;-87
2023/04/17 02:40:16;;;;;;;47.58;24.88;;;9.20;99.90;;;;;;5053341;28;20351;-86
2023/04/17 02:42:42;;;;;;;53.50;27.48;;;9.20;99.90;;;;;;5034439;28;20064;-86
2023/04/17 02:45:09;;;;;;;51.33;28.08;;;9.20;99.90;;;;;;5055331;28;20430;-87
2023/04/17 02:47:35;;;;;;;51.80;26.92;;;9.20;99.90;;;;;;5040909;28;20041;-86
2023/04/17 02:50:01;;;;;;;47.05;25.58;;;9.10;99.90;;;;;;5057205;28;20120;-86
2023/04/17 02:52:28;;;;;;;50.80;26.33;;;9.10;99.90;;;;;;5032989;28;20033;-86
2023/04/17 02:54:55;;;;;;;46.55;25.40;;;9.10;99.90;;;;;;5019371;28;20037;-86
2023/04/17 02:57:22;;;;;;;50.15;26.33;;;9.10;99.90;;;;;;5056193;28;20156;-86
2023/04/17 02:59:50;;;;;;;55.17;28.08;;;9.10;99.90;;;;;;5048038;28;20517;-86
2023/04/17 03:02:20;;;;;;;40.53;23.45;;;9.10;99.90;;;;;;5035482;28;20045;-86
2023/04/17 03:04:48;;;;;;;48.13;25.17;;;9.10;99.90;;;;;;5012417;28;20480;-87
2023/04/17 03:07:17;;;;;;;42.28;23.08;;;9.10;99.90;;;;;;5020470;28;20048;-87
2023/04/17 03:09:46;;;;;;;45.15;23.52;;;9.10;99.90;;;;;;5031281;28;20047;-86
2023/04/17 03:12:13;;;;;;;44.83;23.55;;;9.10;99.90;;;;;;5049721;28;20048;-86
2023/04/17 03:14:39;;;;;;;47.22;24.50;;;9.10;99.90;;;;;;5033687;28;20106;-86
2023/04/17 03:17:05;;;;;;;41.92;23.52;;;9.10;99.90;;;;;;5037761;28;20064;-86
2023/04/17 03:19:31;;;;;;;46.53;25.52;;;9.10;99.90;;;;;;5012611;28;20068;-86
2023/04/17 03:21:56;;;;;;;42.17;21.55;;;9.10;99.90;;;;;;5030484;28;20860;-86
2023/04/17 03:24:22;;;;;;;40.80;22.15;;;9.10;99.90;;;;;;5048072;28;20032;-86
2023/04/17 03:26:48;;;;;;;50.78;24.50;;;9.10;99.90;;;;;;5020382;28;20774;-87
2023/04/17 03:29:14;;;;;;;42.88;23.15;;;9.10;99.90;;;;;;5039168;28;20499;-87
2023/04/17 03:31:39;;;;;;;46.47;23.35;;;9.10;99.90;;;;;;5048773;28;20107;-86
2023/04/17 03:34:05;;;;;;;47.60;24.40;;;9.00;99.90;;;;;;5027589;28;20497;-86
2023/04/17 03:36:31;;;;;;;46.33;22.35;;;9.00;99.90;;;;;;5031982;28;20049;-86
2023/04/17 03:38:57;;;;;;;44.65;24.38;;;9.00;99.90;;;;;;5045570;28;20037;-86
2023/04/17 03:41:22;;;;;;;42.08;23.60;;;9.00;99.90;;;;;;5032195;28;20284;-86
2023/04/17 03:43:48;;;;;;;47.47;22.92;;;9.00;99.90;;;;;;5028526;28;20040;-86
2023/04/17 03:46:14;;;;;;;42.67;21.92;;;8.90;99.90;;;;;;5054522;28;20191;-87
2023/04/17 03:48:40;;;;;;;40.53;21.55;;;8.90;99.90;;;;;;5054505;28;20146;-86
2023/04/17 03:51:05;;;;;;;45.38;22.35;;;9.00;99.90;;;;;;5031394;28;20218;-85
2023/04/17 03:53:31;;;;;;;42.90;23.40;;;8.90;99.90;;;;;;5034475;28;20040;-87
2023/04/17 03:55:57;;;;;;;41.70;21.65;;;8.90;99.90;;;;;;5049073;28;20359;-87
2023/04/17 03:58:23;;;;;;;50.63;24.92;;;8.90;99.90;;;;;;5049379;28;20047;-86
2023/04/17 04:00:54;;;;;;;41.65;23.13;;;8.90;99.90;;;;;;5049063;28;20387;-86
2023/04/17 04:03:23;;;;;;;42.17;23.08;;;8.90;99.90;;;;;;5032480;28;20052;-87
2023/04/17 04:05:48;;;;;;;37.25;22.30;;;8.90;99.90;;;;;;5033446;28;20058;-86
2023/04/17 04:08:14;;;;;;;37.60;21.60;;;8.90;99.90;;;;;;5033482;28;20720;-87
2023/04/17 04:10:43;;;;;;;36.63;20.13;;;8.90;99.90;;;;;;5028262;28;20045;-86
2023/04/17 04:13:10;;;;;;;42.65;22.50;;;8.90;99.90;;;;;;5048680;28;20537;-86
2023/04/17 04:15:36;;;;;;;41.40;23.35;;;8.90;99.90;;;;;;5049776;28;20051;-87
2023/04/17 04:18:05;;;;;;;43.70;23.25;;;8.90;99.90;;;;;;5031190;28;20049;-87
2023/04/17 04:20:31;;;;;;;47.20;25.40;;;8.90;99.90;;;;;;5046236;28;20458;-86
2023/04/17 04:22:58;;;;;;;91.78;23.30;;;8.90;99.90;;;;;;5029280;28;20072;-86
2023/04/17 04:25:25;;;;;;;55.67;21.42;;;8.90;99.90;;;;;;5049936;28;20095;-87
2023/04/17 04:27:51;;;;;;;37.20;21.20;;;8.90;99.90;;;;;;5026535;28;20053;-86
2023/04/17 04:30:18;;;;;;;42.95;21.52;;;8.80;99.90;;;;;;5048366;28;20120;-86
2023/04/17 04:32:45;;;;;;;43.85;21.55;;;8.80;99.90;;;;;;5049349;28;20081;-86
2023/04/17 04:35:11;;;;;;;46.42;21.60;;;8.80;99.90;;;;;;5044754;28;20112;-86
2023/04/17 04:37:37;;;;;;;92.60;23.30;;;8.80;99.90;;;;;;5032199;28;20143;-86
2023/04/17 04:40:24;;;;;;;57.80;22.80;;;8.80;99.90;;;;;;5036880;28;20033;-86
2023/04/17 04:42:49;;;;;;;48.40;22.73;;;8.80;99.90;;;;;;5048409;28;20513;-86
2023/04/17 04:45:15;;;;;;;40.25;20.80;;;8.70;99.90;;;;;;5049260;28;20036;-86
2023/04/17 04:47:41;;;;;;;51.15;21.88;;;8.70;99.90;;;;;;5029906;28;20045;-86
2023/04/17 04:50:09;;;;;;;61.72;25.17;;;8.70;99.90;;;;;;5026798;28;20102;-87
2023/04/17 04:52:44;;;;;;;48.30;22.23;;;8.70;99.90;;;;;;5047258;28;20740;-86
2023/04/17 04:55:13;;;;;;;39.90;20.92;;;8.70;99.90;;;;;;5030004;28;20112;-87
2023/04/17 04:57:42;;;;;;;54.42;19.38;;;8.70;99.90;;;;;;5012835;28;20047;-86
2023/04/17 05:00:12;;;;;;;56.45;20.40;;;8.70;99.90;;;;;;5033473;28;20076;-87
2023/04/17 05:02:44;;;;;;;43.03;21.15;;;8.70;99.90;;;;;;5027514;28;20033;-87
2023/04/17 05:05:11;;;;;;;36.85;19.58;;;8.70;99.90;;;;;;5030887;28;20103;-86
2023/04/17 05:07:37;;;;;;;40.90;22.23;;;8.80;99.90;;;;;;5027996;28;20119;-87
2023/04/17 05:10:05;;;;;;;61.67;21.00;;;8.70;99.90;;;;;;5025828;28;20056;-87
2023/04/17 05:12:31;;;;;;;37.97;21.55;;;8.60;99.90;;;;;;5054989;28;20041;-87
2023/04/17 05:15:07;;;;;;;72.88;21.10;;;8.60;99.90;;;;;;5035245;28;20202;-86
2023/04/17 05:17:34;;;;;;;53.63;20.75;;;8.60;99.90;;;;;;5050225;28;20130;-86
2023/04/17 05:19:59;;;;;;;111.45;24.95;;;8.60;99.90;;;;;;5036062;28;20130;-87
2023/04/17 05:22:26;;;;;;;40.50;21.85;;;8.60;99.90;;;;;;5056737;28;20154;-88
2023/04/17 05:24:54;;;;;;;39.70;19.58;;;8.60;99.90;;;;;;5033456;28;20060;-87
2023/04/17 05:27:20;;;;;;;44.97;23.85;;;8.60;99.90;;;;;;5032974;28;20151;-86
2023/04/17 05:29:46;;;;;;;47.80;21.55;;;8.60;99.90;;;;;;5052038;28;20044;-87
2023/04/17 05:32:12;;;;;;;37.50;21.42;;;8.70;99.90;;;;;;5041966;28;20032;-86
2023/04/17 05:34:38;;;;;;;46.90;23.35;;;8.70;99.90;;;;;;5034771;28;20048;-87
2023/04/17 05:37:04;;;;;;;44.00;23.10;;;8.70;99.90;;;;;;5018845;28;20065;-86
2023/04/17 05:39:33;;;;;;;35.88;20.23;;;8.70;99.90;;;;;;5017748;28;20472;-87
2023/04/17 05:41:58;;;;;;;44.17;21.70;;;8.70;99.90;;;;;;5018412;28;20090;-88
2023/04/17 05:44:24;;;;;;;34.58;20.23;;;8.80;99.90;;;;;;5049333;28;20417;-87
2023/04/17 05:46:50;;;;;;;34.92;20.10;;;8.80;99.90;;;;;;5050290;28;20044;-87
2023/04/17 05:49:16;;;;;;;37.67;20.92;;;9.00;99.90;;;;;;5037390;28;20239;-89
2023/04/17 05:51:42;;;;;;;38.30;21.58;;;8.90;99.90;;;;;;5055078;28;20040;-88
2023/04/17 05:54:07;;;;;;;34.97;20.52;;;8.80;99.90;;;;;;5034015;28;20032;-88
2023/04/17 05:56:33;;;;;;;37.08;22.50;;;8.80;99.90;;;;;;5051695;28;20079;-89
2023/04/17 05:58:58;;;;;;;39.50;23.23;;;8.80;99.90;;;;;;5033710;28;20105;-88
2023/04/17 06:01:25;;;;;;;42.45;24.33;;;8.80;99.90;;;;;;5057306;28;20036;-88
2023/04/17 06:03:51;;;;;;;42.83;24.23;;;8.90;99.90;;;;;;5019331;28;20754;-87
2023/04/17 06:06:17;;;;;;;43.83;23.75;;;8.90;99.90;;;;;;5040074;28;20503;-90
2023/04/17 06:08:42;;;;;;;46.50;24.33;;;9.10;99.90;;;;;;5034298;28;20047;-90
2023/04/17 06:11:08;;;;;;;43.70;25.13;;;8.80;99.90;;;;;;5025794;28;20044;-88
2023/04/17 06:13:34;;;;;;;49.25;27.95;;;8.80;99.90;;;;;;5065425;28;20032;-91
2023/04/17 06:16:00;;;;;;;64.53;27.73;;;8.90;99.90;;;;;;5035280;28;20063;-91
2023/04/17 06:18:26;;;;;;;51.90;28.27;;;8.80;99.90;;;;;;5048735;28;20036;-91
2023/04/17 06:20:52;;;;;;;42.33;23.60;;;8.90;99.90;;;;;;5037911;28;20040;-89
2023/04/17 06:23:18;;;;;;;50.83;28.77;;;8.90;99.90;;;;;;5039793;28;20493;-84
2023/04/17 06:25:44;;;;;;;43.40;25.65;;;8.90;99.90;;;;;;5016415;28;20045;-88
2023/04/17 06:28:10;;;;;;;39.47;22.98;;;8.90;99.90;;;;;;5032027;28;20271;-89
2023/04/17 06:30:37;;;;;;;48.10;26.50;;;8.90;99.90;;;;;;5050524;28;20823;-89
2023/04/17 06:33:02;;;;;;;46.90;25.23;;;8.80;99.90;;;;;;5033959;28;20040;-86
2023/04/17 06:35:31;;;;;;;47.90;26.52;;;8.90;99.90;;;;;;5050324;28;20079;-89
2023/04/17 06:37:56;;;;;;;43.78;25.27;;;9.00;99.90;;;;;;5031106;28;20040;-88
2023/04/17 06:40:22;;;;;;;44.15;24.38;;;9.00;99.90;;;;;;5034610;28;20368;-88
2023/04/17 06:42:48;;;;;;;41.80;24.58;;;9.10;99.90;;;;;;5048440;28;20098;-87
2023/04/17 06:45:14;;;;;;;39.20;23.90;;;9.10;99.90;;;;;;5045578;28;20140;-89
2023/04/17 06:47:41;;;;;;;44.20;25.80;;;9.10;99.90;;;;;;5054558;28;20045;-89
2023/04/17 06:50:07;;;;;;;40.75;24.58;;;9.20;99.90;;;;;;5030339;28;20523;-93
2023/04/17 06:52:33;;;;;;;47.80;26.90;;;9.20;99.90;;;;;;5068790;28;20079;-93
2023/04/17 06:54:59;;;;;;;48.60;26.67;;;9.20;99.90;;;;;;5064456;28;20137;-91
2023/04/17 06:57:25;;;;;;;47.15;28.75;;;9.30;99.90;;;;;;5031856;28;20226;-91
2023/04/17 06:59:51;;;;;;;44.42;25.52;;;9.30;99.90;;;;;;5042499;28;20567;-92
2023/04/17 07:02:16;;;;;;;42.50;23.95;;;9.30;99.90;;;;;;5030392;28;20042;-91
2023/04/17 07:04:42;;;;;;;41.85;24.88;;;9.00;99.90;;;;;;5031051;28;20040;-92
2023/04/17 07:07:08;;;;;;;40.47;22.55;;;9.40;99.90;;;;;;5037089;28;20052;-92
2023/04/17 07:09:34;;;;;;;40.13;24.98;;;9.40;99.90;;;;;;5040260;28;20120;-95
2023/04/17 07:11:59;;;;;;;37.53;23.27;;;9.40;99.90;;;;;;5048401;28;20060;-95
2023/04/17 07:14:26;;;;;;;45.85;25.48;;;9.50;99.90;;;;;;5049504;28;20047;-94
2023/04/17 07:16:52;;;;;;;37.80;24.50;;;9.50;99.90;;;;;;5136901;23;20063;-91
2023/04/17 07:19:18;;;;;;;44.70;26.63;;;9.50;99.90;;;;;;5047676;28;20669;-94
2023/04/17 07:21:44;;;;;;;45.40;26.15;;;9.80;99.90;;;;;;5032430;28;20073;-93
2023/04/17 07:24:10;;;;;;;41.33;25.25;;;9.70;99.90;;;;;;5019660;28;20087;-91
2023/04/17 07:26:42;;;;;;;42.38;25.02;;;9.70;99.90;;;;;;5060919;28;20072;-92
2023/04/17 07:29:08;;;;;;;35.97;23.75;;;9.70;99.90;;;;;;5014939;28;20076;-93
2023/04/17 07:31:34;;;;;;;37.83;23.42;;;9.80;99.90;;;;;;5037365;28;20041;-93
2023/04/17 07:34:00;;;;;;;40.90;26.40;;;9.90;99.90;;;;;;5034403;28;20593;-92
2023/04/17 07:36:27;;;;;;;39.88;24.88;;;9.90;99.90;;;;;;5039290;28;20041;-92
2023/04/17 07:38:53;;;;;;;41.88;26.17;;;10.00;99.90;;;;;;5033841;28;20045;-93
2023/04/17 07:41:19;;;;;;;43.20;26.23;;;10.00;99.90;;;;;;5049781;28;20052;-92
2023/04/17 07:43:44;;;;;;;39.17;25.92;;;10.10;99.90;;;;;;5033913;28;20041;-92
2023/04/17 07:46:10;;;;;;;37.95;25.70;;;10.20;99.90;;;;;;5057133;28;20045;-93
2023/04/17 07:48:36;;;;;;;39.15;24.83;;;10.20;99.90;;;;;;5053076;28;20144;-94
2023/04/17 07:51:01;;;;;;;35.92;24.63;;;10.30;99.90;;;;;;5060146;28;20033;-92
2023/04/17 07:53:28;;;;;;;35.85;23.95;;;10.30;99.90;;;;;;5054176;28;20128;-93
2023/04/17 07:55:57;;;;;;;36.50;24.45;;;10.30;99.90;;;;;;5036225;28;20060;-94
2023/04/17 07:58:23;;;;;;;38.53;24.38;;;10.40;99.90;;;;;;5042898;28;20044;-93
2023/04/17 08:00:52;;;;;;;36.20;23.25;;;10.40;99.90;;;;;;5058047;28;20100;-92
2023/04/17 08:03:20;;;;;;;32.63;22.55;;;10.50;99.90;;;;;;5022262;28;20536;-93
2023/04/17 08:05:47;;;;;;;32.97;22.83;;;10.50;99.90;;;;;;5035808;28;20057;-92
2023/04/17 08:08:14;;;;;;;37.67;24.40;;;10.50;99.90;;;;;;5061699;28;20083;-94
2023/04/17 08:10:40;;;;;;;32.70;22.50;;;10.60;99.90;;;;;;5051846;28;20054;-93
2023/04/17 08:13:06;;;;;;;34.25;23.13;;;10.60;99.90;;;;;;5054147;28;20033;-94
2023/04/17 08:15:32;;;;;;;36.50;23.85;;;10.60;99.90;;;;;;5056896;28;20452;-92
2023/04/17 08:17:58;;;;;;;33.13;22.45;;;10.60;99.90;;;;;;5050221;28;20129;-90
2023/04/17 08:20:24;;;;;;;34.47;23.02;;;10.70;99.90;;;;;;5039900;28;20104;-96
2023/04/17 08:22:49;;;;;;;34.60;22.80;;;10.70;99.90;;;;;;5052422;28;20052;-96
2023/04/17 08:25:24;;;;;;;29.60;22.52;;;10.80;99.90;;;;;;5045074;28;20142;-96
2023/04/17 08:27:56;;;;;;;33.05;22.63;;;10.90;99.90;;;;;;5039351;22;20051;-95
2023/04/17 08:30:23;;;;;;;28.70;21.42;;;11.20;99.90;;;;;;5033599;28;20063;-95
2023/04/17 08:32:51;;;;;;;31.65;22.92;;;11.10;99.90;;;;;;5055432;28;20090;-96
2023/04/17 08:35:29;;;;;;;36.13;23.40;;;11.20;99.90;;;;;;5050030;28;20041;-96
2023/04/17 08:38:00;;;;;;;30.77;21.85;;;11.30;99.90;;;;;;5055541;28;20048;-96
2023/04/17 08:40:27;;;;;;;34.10;21.60;;;11.40;99.90;;;;;;5046814;28;20049;-96
2023/04/17 08:43:20;;;;;;;31.38;22.25;;;11.70;99.90;;;;;;5052132;28;20048;-96
2023/04/17 08:45:55;;;;;;;27.80;20.13;;;11.70;99.90;;;;;;5048408;28;20056;-95
2023/04/17 08:48:34;;;;;;;28.55;20.13;;;11.40;99.90;;;;;;5070292;28;20708;-95
2023/04/17 08:51:09;;;;;;;29.38;20.13;;;11.90;99.90;;;;;;5031786;28;20136;-95
2023/04/17 08:53:40;;;;;;;27.73;19.70;;;11.50;99.90;;;;;;5053479;28;20049;-96
2023/04/17 08:56:07;;;;;;;27.33;19.60;;;11.70;99.90;;;;;;5075084;28;20468;-95
2023/04/17 08:58:38;;;;;;;25.90;18.85;;;11.70;99.90;;;;;;5058824;28;20051;-95
2023/04/17 09:01:14;;;;;;;24.40;18.50;;;11.50;99.90;;;;;;5070904;28;20040;-96
2023/04/17 09:03:42;;;;;;;27.23;19.90;;;12.10;99.90;;;;;;5030910;28;20036;-96
2023/04/17 09:06:22;;;;;;;23.65;18.70;;;12.00;99.90;;;;;;5074757;23;20040;-95
2023/04/17 09:09:05;;;;;;;24.00;18.75;;;12.10;99.90;;;;;;5022492;28;20053;-96
2023/04/17 09:11:31;;;;;;;26.45;17.60;;;12.10;99.90;;;;;;5118059;23;20064;-95
2023/04/17 09:13:58;;;;;;;26.42;18.23;;;12.10;99.90;;;;;;5049941;28;20045;-96
2023/04/17 09:16:24;;;;;;;22.63;17.17;;;12.20;99.90;;;;;;5033013;28;20049;-95
2023/04/17 09:18:50;;;;;;;22.95;17.05;;;12.50;99.90;;;;;;5061734;28;20166;-96
2023/04/17 09:21:17;;;;;;;21.42;15.98;;;12.50;99.90;;;;;;5054429;28;20044;-95
2023/04/17 09:23:55;;;;;;;23.73;16.95;;;13.40;99.90;;;;;;5044011;28;20048;-96
2023/04/17 09:26:25;;;;;;;21.65;16.30;;;12.90;99.90;;;;;;5027515;28;20041;-95
2023/04/17 09:29:02;;;;;;;24.10;17.27;;;12.80;99.90;;;;;;5063092;28;20048;-95
2023/04/17 09:31:30;;;;;;;25.50;17.90;;;12.90;99.90;;;;;;5028070;28;20124;-95
2023/04/17 09:34:37;;;;;;;21.92;17.02;;;13.00;99.90;;;;;;5075368;23;20063;-96
2023/04/17 09:37:03;;;;;;;21.05;16.58;;;13.10;99.90;;;;;;5075280;28;20060;-91
2023/04/17 09:39:29;;;;;;;21.58;17.27;;;12.70;99.90;;;;;;5063582;28;20056;-91
2023/04/17 09:42:09;;;;;;;25.90;17.90;;;13.40;99.90;;;;;;5065630;28;20643;-90
2023/04/17 09:44:36;;;;;;;22.77;17.70;;;13.20;99.90;;;;;;5064082;28;20771;-90
2023/04/17 09:47:03;;;;;;;21.73;17.13;;;13.30;99.90;;;;;;5063219;28;20126;-90
2023/04/17 09:49:41;;;;;;;26.40;17.67;;;13.40;99.90;;;;;;5070202;28;20047;-91
2023/04/17 09:52:07;;;;;;;22.60;16.75;;;13.60;99.90;;;;;;5070588;28;20338;-91
2023/04/17 09:54:36;;;;;;;21.17;15.25;;;13.90;99.90;;;;;;5062644;28;20463;-90
2023/04/17 09:57:06;;;;;;;20.65;15.40;;;14.00;99.90;;;;;;5070756;28;20045;-91
2023/04/17 09:59:33;;;;;;;23.45;16.25;;;14.20;99.90;;;;;;5075989;28;20047;-91
2023/04/17 10:02:06;;;;;;;20.75;15.50;;;14.20;99.90;;;;;;5071538;28;20067;-90
2023/04/17 10:04:32;;;;;;;23.95;14.52;;;14.40;99.90;;;;;;5070162;28;20143;-91
2023/04/17 10:06:58;;;;;;;18.75;13.23;;;14.40;99.90;;;;;;5051296;28;20190;-90
2023/04/17 10:09:24;;;;;;;20.95;14.80;;;14.50;99.90;;;;;;5070207;28;20057;-90
2023/04/17 10:11:50;;;;;;;19.63;14.77;;;14.70;99.90;;;;;;5069124;28;20075;-90
2023/04/17 10:14:30;;;;;;;18.92;14.20;;;14.80;99.90;;;;;;5069089;28;20048;-92
2023/04/17 10:16:55;;;;;;;27.65;14.77;;;14.90;99.90;;;;;;5068321;28;20040;-90
2023/04/17 10:19:32;;;;;;;20.27;14.75;;;14.90;99.90;;;;;;5056302;28;20058;-91
2023/04/17 10:22:17;;;;;;;19.77;15.23;;;14.80;99.90;;;;;;5071329;28;20567;-91
2023/04/17 10:24:43;;;;;;;20.30;14.30;;;14.80;99.90;;;;;;5053037;28;20753;-90
2023/04/17 10:27:45;;;;;;;22.52;15.55;;;14.70;99.90;;;;;;5069855;28;20339;-90
2023/04/17 10:30:12;;;;;;;21.10;14.32;;;14.80;99.90;;;;;;5052994;28;20059;-93
2023/04/17 10:32:40;;;;;;;20.85;14.80;;;14.90;99.90;;;;;;5070113;28;20033;-92
2023/04/17 10:35:15;;;;;;;20.30;14.82;;;15.00;99.90;;;;;;5097848;28;20137;-91
2023/04/17 10:37:49;;;;;;;23.27;14.57;;;15.10;99.90;;;;;;5068782;28;20051;-91
2023/04/17 10:40:22;;;;;;;;;;;15.30;99.90;;;;;;5076857;28;20505;-92
2023/04/17 10:43:10;;;;;;;19.25;13.68;;;15.50;99.90;;;;;;5061030;28;19930;-91
2023/04/17 10:46:03;;;;;;;17.52;14.52;;;15.70;99.90;;;;;;5070095;28;20760;-90
2023/04/17 10:48:35;;;;;;;20.10;13.68;;;15.90;99.90;;;;;;5090066;28;20472;-90
2023/04/17 10:51:25;;;;;;;17.60;13.85;;;16.10;99.90;;;;;;5076244;28;20519;-89
2023/04/17 10:54:00;;;;;;;20.48;15.25;;;16.20;99.90;;;;;;5058314;28;20052;-90
2023/04/17 10:56:47;;;;;;;20.48;14.90;;;16.10;99.90;;;;;;5055573;28;20093;-89
2023/04/17 10:59:17;;;;;;;19.25;14.55;;;16.10;99.90;;;;;;5071148;28;20044;-89
2023/04/17 11:01:54;;;;;;;19.80;14.82;;;16.00;99.90;;;;;;5102226;28;20090;-91
2023/04/17 11:04:25;;;;;;;19.73;14.20;;;15.90;99.90;;;;;;5092775;28;20036;-90
2023/04/17 11:06:52;;;;;;;20.10;14.32;;;15.90;99.90;;;;;;5096368;28;20043;-90
2023/04/17 11:09:27;;;;;;;19.92;13.70;;;15.80;99.90;;;;;;5056814;28;20065;-89
2023/04/17 11:11:54;;;;;;;21.10;14.73;;;15.80;99.90;;;;;;5063284;28;20541;-90
2023/04/17 11:14:22;;;;;;;19.52;14.00;;;15.80;99.90;;;;;;5057297;28;20071;-87
2023/04/17 11:16:49;;;;;;;21.60;13.73;;;15.80;99.90;;;;;;5085696;28;20040;-87
2023/04/17 11:19:23;;;;;;;20.90;15.25;;;15.80;99.90;;;;;;5071224;28;20074;-89
2023/04/17 11:21:51;;;;;;;20.95;15.30;;;15.80;99.90;;;;;;5067545;28;20044;-88
2023/04/17 11:24:30;;;;;;;21.10;15.23;;;15.80;99.90;;;;;;5090048;28;20584;-88
2023/04/17 11:26:58;;;;;;;19.38;15.75;;;15.90;99.90;;;;;;5073616;28;20131;-88
2023/04/17 11:29:25;;;;;;;21.05;15.48;;;16.00;99.90;;;;;;5072353;28;20048;-88
2023/04/17 11:31:53;;;;;;;19.23;14.43;;;15.90;99.90;;;;;;5071974;28;20058;-88
2023/04/17 11:34:19;;;;;;;19.35;13.85;;;16.00;99.90;;;;;;5074183;28;20060;-90
2023/04/17 11:36:51;;;;;;;21.08;14.68;;;16.10;99.90;;;;;;5093121;28;20075;-90
2023/04/17 11:39:19;;;;;;;22.38;15.50;;;16.20;99.90;;;;;;5101330;28;20039;-89
2023/04/17 11:41:45;;;;;;;16.92;14.05;;;16.30;99.90;;;;;;5086730;28;20129;-89
2023/04/17 11:44:15;;;;;;;21.15;14.25;;;16.50;99.90;;;;;;5064673;28;20036;-89
2023/04/17 11:46:41;;;;;;;18.60;14.50;;;16.70;99.90;;;;;;5068071;28;20043;-90
2023/04/17 11:49:07;;;;;;;18.30;13.20;;;16.80;99.90;;;;;;5084861;28;20042;-89
2023/04/17 11:51:33;;;;;;;18.25;14.30;;;17.00;99.90;;;;;;5068072;28;20097;-89
2023/04/17 11:53:59;;;;;;;16.05;13.43;;;17.10;99.90;;;;;;5071749;28;20125;-89
2023/04/17 11:56:29;;;;;;;21.38;15.27;;;17.10;99.90;;;;;;5077706;28;20088;-89
2023/04/17 11:58:57;;;;;;;18.95;14.00;;;16.90;99.90;;;;;;5076418;28;20119;-89
2023/04/17 12:01:25;;;;;;;18.52;13.65;;;16.80;99.90;;;;;;5084099;28;20038;-89
2023/04/17 12:03:53;;;;;;;21.08;14.52;;;16.80;99.90;;;;;;5065894;28;20036;-89
2023/04/17 12:06:19;;;;;;;18.65;15.23;;;16.80;99.90;;;;;;5072874;28;20055;-90
2023/04/17 12:08:50;;;;;;;18.73;14.40;;;16.90;99.90;;;;;;5065651;28;20040;-88
2023/04/17 12:11:23;;;;;;;18.95;15.50;;;17.10;99.90;;;;;;5070670;28;20105;-89
2023/04/17 12:13:53;;;;;;;20.08;15.30;;;17.00;99.90;;;;;;5079007;28;20046;-89
2023/04/17 12:16:19;;;;;;;19.40;14.88;;;17.00;99.90;;;;;;5066844;28;20043;-89
2023/04/17 12:18:45;;;;;;;19.38;14.77;;;17.00;99.90;;;;;;5069276;28;20043;-90
2023/04/17 12:21:11;;;;;;;21.40;13.73;;;17.20;99.90;;;;;;5093511;28;20040;-90
2023/04/17 12:23:37;;;;;;;22.70;14.60;;;17.30;99.90;;;;;;5075207;28;20036;-90
2023/04/17 12:26:03;;;;;;;21.23;15.63;;;17.40;99.90;;;;;;5082656;28;20104;-90
2023/04/17 12:28:29;;;;;;;18.92;14.32;;;17.50;99.90;;;;;;5075849;28;20051;-90
2023/04/17 12:30:55;;;;;;;19.77;14.07;;;17.60;99.90;;;;;;5068745;28;20052;-91
2023/04/17 12:33:21;;;;;;;19.10;14.07;;;17.80;99.90;;;;;;5070417;28;20059;-92
2023/04/17 12:35:47;;;;;;;20.52;14.55;;;17.90;99.90;;;;;;5066466;28;20203;-91
2023/04/17 12:38:12;;;;;;;18.90;15.30;;;18.00;99.90;;;;;;5067625;28;20073;-90